createdAt,value
2017-12-19T00:02:21.775Z,-0.30
2017-12-19T00:04:49.940Z,-0.20
2017-12-19T00:07:18.045Z,-0.30
2017-12-19T00:09:46.141Z,-0.30
2017-12-19T00:12:14.291Z,-0.20
2017-12-19T00:14:43.136Z,-0.20
2017-12-19T00:17:11.231Z,-0.20
2017-12-19T00:19:40.083Z,-0.20
2017-12-19T00:22:08.202Z,-0.20
2017-12-19T00:24:36.538Z,-0.30
2017-12-19T00:27:04.688Z,-0.30
2017-12-19T00:29:32.784Z,-0.40
2017-12-19T00:32:01.069Z,-0.50
2017-12-19T00:34:29.164Z,-0.50
2017-12-19T00:36:57.279Z,-0.50
2017-12-19T00:39:26.174Z,-0.30
2017-12-19T00:41:54.815Z,-0.20
2017-12-19T00:44:22.910Z,-0.20
2017-12-19T00:46:51.071Z,0.00
2017-12-19T00:49:19.192Z,0.00
2017-12-19T00:51:47.279Z,0.00
2017-12-19T00:54:16.162Z,-0.30
2017-12-19T00:56:45.023Z,-0.50
2017-12-19T00:59:13.146Z,-0.50
2017-12-19T01:01:41.297Z,-0.30
2017-12-19T01:04:09.375Z,-0.20
2017-12-19T01:06:38.464Z,-0.70
2017-12-19T01:09:06.646Z,-0.70
2017-12-19T01:11:34.804Z,-0.70
2017-12-19T01:14:03.804Z,-0.70
2017-12-19T01:16:32.036Z,-0.70
2017-12-19T01:19:00.323Z,-0.70
2017-12-19T01:21:28.696Z,-0.40
2017-12-19T01:23:56.841Z,-0.30
2017-12-19T01:26:25.007Z,-0.40
2017-12-19T01:28:53.238Z,-0.30
2017-12-19T01:31:21.409Z,-0.20
2017-12-19T01:33:49.546Z,-0.20
2017-12-19T01:36:18.459Z,-0.10
2017-12-19T01:38:46.640Z,-0.10
2017-12-19T01:41:15.033Z,0.00
2017-12-19T01:43:43.920Z,-0.20
2017-12-19T01:46:13.105Z,-0.30
2017-12-19T01:48:41.201Z,-0.30
2017-12-19T01:51:09.395Z,-0.30
2017-12-19T01:53:37.562Z,-0.20
2017-12-19T01:56:05.693Z,-0.10
2017-12-19T01:58:33.753Z,-0.10
2017-12-19T02:01:01.894Z,0.00
2017-12-19T02:03:29.968Z,0.10
2017-12-19T02:05:58.066Z,0.10
2017-12-19T02:08:26.947Z,0.10
2017-12-19T02:10:55.029Z,0.10
2017-12-19T02:13:23.151Z,-0.30
2017-12-19T02:15:51.277Z,-0.30
2017-12-19T02:18:19.368Z,-0.50
2017-12-19T02:20:48.283Z,-0.60
2017-12-19T02:23:16.398Z,-0.60
2017-12-19T02:26:00.317Z,-0.60
2017-12-19T02:28:28.418Z,-0.40
2017-12-19T02:30:56.688Z,-0.30
2017-12-19T02:33:24.799Z,-0.50
2017-12-19T02:35:52.895Z,-0.20
2017-12-19T02:38:21.002Z,-0.20
2017-12-19T02:40:49.897Z,-0.10
2017-12-19T02:43:21.702Z,-0.50
2017-12-19T02:45:52.271Z,-0.50
2017-12-19T02:48:20.354Z,-0.30
2017-12-19T02:50:48.468Z,-0.40
2017-12-19T02:53:16.586Z,-0.30
2017-12-19T02:55:44.762Z,-0.20
2017-12-19T02:58:12.903Z,-0.40
2017-12-19T03:00:41.003Z,-0.60
2017-12-19T03:03:09.874Z,-0.70
2017-12-19T03:05:38.748Z,-0.70
2017-12-19T03:08:06.832Z,-0.70
2017-12-19T03:10:34.935Z,-0.70
2017-12-19T03:13:03.836Z,-0.70
2017-12-19T03:15:31.966Z,-0.50
2017-12-19T03:18:00.062Z,-0.30
2017-12-19T03:20:28.143Z,-0.40
2017-12-19T03:22:56.284Z,-0.60
2017-12-19T03:25:24.344Z,-0.70
2017-12-19T03:27:53.231Z,-0.70
2017-12-19T03:30:21.330Z,-0.70
2017-12-19T03:32:50.171Z,-0.60
2017-12-19T03:35:18.291Z,-0.60
2017-12-19T03:37:46.425Z,-0.60
2017-12-19T03:40:14.520Z,-0.40
2017-12-19T03:42:43.380Z,-0.40
2017-12-19T03:45:11.541Z,-0.40
2017-12-19T03:47:39.637Z,-0.50
2017-12-19T03:50:08.583Z,-0.30
2017-12-19T03:52:36.679Z,-0.30
2017-12-19T03:55:04.781Z,-0.20
2017-12-19T03:57:32.956Z,-0.10
2017-12-19T04:00:01.019Z,-0.20
2017-12-19T04:02:29.103Z,-0.20
2017-12-19T04:04:57.224Z,-0.30
2017-12-19T04:07:25.357Z,-0.20
2017-12-19T04:09:54.266Z,-0.10
2017-12-19T04:12:22.316Z,-0.10
2017-12-19T04:14:50.439Z,-0.10
2017-12-19T04:17:18.532Z,-0.10
2017-12-19T04:19:47.416Z,-0.10
2017-12-19T04:22:15.523Z,-0.10
2017-12-19T04:24:43.635Z,-0.10
2017-12-19T04:27:11.751Z,0.00
2017-12-19T04:29:39.893Z,0.00
2017-12-19T04:32:07.972Z,0.00
2017-12-19T04:34:36.849Z,0.00
2017-12-19T04:37:04.940Z,0.00
2017-12-19T04:39:33.837Z,0.00
2017-12-19T04:42:01.941Z,0.00
2017-12-19T04:44:30.066Z,-0.10
2017-12-19T04:46:58.947Z,-0.10
2017-12-19T04:49:27.062Z,-0.10
2017-12-19T04:51:55.183Z,-0.10
2017-12-19T04:54:23.304Z,-0.10
2017-12-19T04:56:51.431Z,-0.10
2017-12-19T04:59:19.500Z,-0.10
2017-12-19T05:01:47.635Z,0.00
2017-12-19T05:04:15.731Z,-0.10
2017-12-19T05:06:43.985Z,-0.10
2017-12-19T05:09:12.089Z,-0.10
2017-12-19T05:11:40.315Z,-0.10
2017-12-19T05:14:08.443Z,-0.20
2017-12-19T05:16:36.600Z,-0.20
2017-12-19T05:19:04.738Z,-0.10
2017-12-19T05:21:32.857Z,-0.10
2017-12-19T05:24:00.978Z,-0.20
2017-12-19T05:26:29.096Z,-0.20
2017-12-19T05:28:57.250Z,-0.20
2017-12-19T05:31:25.609Z,-0.30
2017-12-19T05:33:53.720Z,-0.30
2017-12-19T05:36:21.850Z,-0.20
2017-12-19T05:38:50.027Z,-0.20
2017-12-19T05:41:18.136Z,-0.40
2017-12-19T05:43:47.004Z,-0.60
2017-12-19T05:46:15.907Z,-0.70
2017-12-19T05:48:44.039Z,-0.70
2017-12-19T05:51:12.323Z,-0.70
2017-12-19T05:53:40.677Z,-0.70
2017-12-19T05:56:08.800Z,-0.60
2017-12-19T05:58:36.947Z,-0.60
2017-12-19T06:01:05.056Z,-0.70
2017-12-19T06:03:33.204Z,-0.60
2017-12-19T06:06:01.365Z,-0.60
2017-12-19T06:08:29.641Z,-0.80
2017-12-19T06:10:58.621Z,-0.80
2017-12-19T06:13:26.796Z,-0.80
2017-12-19T06:15:55.767Z,-0.80
2017-12-19T06:18:23.904Z,-0.80
2017-12-19T06:20:52.080Z,-0.70
2017-12-19T06:23:20.203Z,-0.60
2017-12-19T06:25:48.279Z,-0.50
2017-12-19T06:28:16.366Z,-0.40
2017-12-19T06:30:44.563Z,-0.30
2017-12-19T06:33:12.665Z,-0.30
2017-12-19T06:35:40.807Z,-0.30
2017-12-19T06:38:08.927Z,-0.40
2017-12-19T06:40:36.991Z,-0.40
2017-12-19T06:43:05.083Z,-0.30
2017-12-19T06:45:33.338Z,-0.30
2017-12-19T06:48:01.483Z,-0.40
2017-12-19T06:50:30.442Z,-0.30
2017-12-19T06:52:58.944Z,-0.30
2017-12-19T06:55:27.104Z,-0.40
2017-12-19T06:57:55.223Z,-0.30
2017-12-19T07:00:23.406Z,-0.40
2017-12-19T07:02:52.491Z,-0.50
2017-12-19T07:05:20.599Z,-0.50
2017-12-19T07:07:48.809Z,-0.50
2017-12-19T07:10:16.904Z,-0.50
2017-12-19T07:12:45.439Z,-0.60
2017-12-19T07:15:13.532Z,-0.80
2017-12-19T07:17:41.683Z,-0.90
2017-12-19T07:20:09.788Z,-1.10
2017-12-19T07:22:37.900Z,-1.10
2017-12-19T07:25:06.015Z,-1.20
2017-12-19T07:27:34.118Z,-1.40
2017-12-19T07:30:02.971Z,-1.40
2017-12-19T07:32:31.106Z,-1.40
2017-12-19T07:34:59.230Z,-1.40
2017-12-19T07:37:27.331Z,-1.40
2017-12-19T07:39:55.443Z,-1.30
2017-12-19T07:42:23.639Z,-1.40
2017-12-19T07:44:52.578Z,-1.30
2017-12-19T07:47:20.729Z,-1.30
2017-12-19T07:49:48.856Z,-1.40
2017-12-19T07:52:16.996Z,-1.40
2017-12-19T07:54:45.124Z,-1.00
2017-12-19T07:57:14.154Z,-0.50
2017-12-19T07:59:42.288Z,-0.50
2017-12-19T08:02:10.443Z,-0.10
2017-12-19T08:04:38.665Z,0.20
2017-12-19T08:07:06.771Z,0.50
2017-12-19T08:09:34.932Z,0.90
2017-12-19T08:12:03.089Z,1.60
2017-12-19T08:14:31.212Z,2.10
2017-12-19T08:16:59.299Z,2.50
2017-12-19T08:19:27.479Z,2.90
2017-12-19T08:21:55.883Z,3.00
2017-12-19T08:24:24.010Z,3.20
2017-12-19T08:26:52.106Z,3.80
2017-12-19T08:29:20.226Z,4.20
2017-12-19T08:31:48.376Z,5.00
2017-12-19T08:34:16.496Z,5.60
2017-12-19T08:36:44.631Z,5.90
2017-12-19T08:39:12.725Z,6.20
2017-12-19T08:41:41.612Z,6.90
2017-12-19T08:44:10.469Z,7.20
2017-12-19T08:46:38.653Z,7.20
2017-12-19T08:49:06.939Z,7.50
2017-12-19T08:51:35.011Z,7.50
2017-12-19T08:54:03.883Z,7.70
2017-12-19T08:56:31.964Z,7.70
2017-12-19T08:59:00.127Z,7.40
2017-12-19T09:01:28.206Z,7.40
2017-12-19T09:03:56.308Z,7.10
2017-12-19T09:06:24.387Z,6.80
2017-12-19T09:08:52.468Z,7.60
2017-12-19T09:11:20.551Z,8.50
2017-12-19T09:13:48.640Z,9.00
2017-12-19T09:16:16.715Z,7.70
2017-12-19T09:18:44.799Z,7.90
2017-12-19T09:21:13.639Z,9.30
2017-12-19T09:23:41.731Z,9.30
2017-12-19T09:26:09.819Z,7.70
2017-12-19T09:28:37.923Z,7.20
2017-12-19T09:31:06.755Z,6.10
2017-12-19T09:33:34.843Z,6.00
2017-12-19T09:36:02.934Z,5.60
2017-12-19T09:38:31.002Z,5.40
2017-12-19T09:41:00.647Z,4.50
2017-12-19T09:43:28.792Z,4.20
2017-12-19T09:45:56.875Z,5.10
2017-12-19T09:48:25.106Z,8.20
2017-12-19T09:50:53.999Z,9.40
2017-12-19T09:53:22.144Z,9.40
2017-12-19T09:55:50.230Z,10.40
2017-12-19T09:58:18.310Z,9.60
2017-12-19T10:00:47.151Z,7.20
2017-12-19T10:03:15.245Z,7.10
2017-12-19T10:05:43.336Z,6.00
2017-12-19T10:08:12.189Z,9.40
2017-12-19T10:10:41.046Z,9.30
2017-12-19T10:13:09.136Z,9.90
2017-12-19T10:15:37.218Z,11.40
2017-12-19T10:18:05.307Z,13.00
2017-12-19T10:20:33.388Z,13.70
2017-12-19T10:23:02.244Z,12.40
2017-12-19T10:25:30.326Z,12.40
2017-12-19T10:27:58.414Z,11.00
2017-12-19T10:30:27.269Z,9.50
2017-12-19T10:32:55.372Z,9.50
2017-12-19T10:35:24.234Z,10.90
2017-12-19T10:37:52.326Z,10.90
2017-12-19T10:40:20.416Z,11.10
2017-12-19T10:42:49.271Z,11.10
2017-12-19T10:45:17.364Z,11.00
2017-12-19T10:47:45.495Z,11.10
2017-12-19T10:50:13.688Z,10.50
2017-12-19T10:52:41.784Z,12.10
2017-12-19T10:55:10.650Z,15.00
2017-12-19T10:57:38.731Z,15.00
2017-12-19T11:00:06.874Z,15.70
2017-12-19T11:02:35.164Z,15.90
2017-12-19T11:05:03.256Z,16.20
2017-12-19T11:07:31.506Z,14.90
2017-12-19T11:09:59.597Z,15.60
2017-12-19T11:12:28.447Z,12.10
2017-12-19T11:14:56.532Z,12.00
2017-12-19T11:17:24.621Z,14.10
2017-12-19T11:19:53.479Z,10.20
2017-12-19T11:22:21.580Z,10.10
2017-12-19T11:24:50.429Z,7.40
2017-12-19T11:27:18.549Z,7.30
2017-12-19T11:29:47.425Z,7.50
2017-12-19T11:32:16.284Z,7.20
2017-12-19T11:34:44.404Z,7.20
2017-12-19T11:37:12.532Z,5.50
2017-12-19T11:39:40.648Z,4.00
2017-12-19T11:42:09.516Z,3.20
2017-12-19T11:44:38.393Z,2.90
2017-12-19T11:47:06.475Z,2.90
2017-12-19T11:49:35.337Z,3.20
2017-12-19T11:52:03.431Z,3.20
2017-12-19T11:54:32.335Z,3.00
2017-12-19T11:57:00.451Z,3.00
2017-12-19T11:59:28.569Z,2.70
2017-12-19T12:01:56.701Z,2.50
2017-12-19T12:04:24.787Z,2.40
2017-12-19T12:06:53.643Z,1.90
2017-12-19T12:09:21.753Z,1.90
2017-12-19T12:11:50.643Z,2.90
2017-12-19T12:14:18.748Z,2.90
2017-12-19T12:16:46.847Z,3.40
2017-12-19T12:19:15.179Z,3.50
2017-12-19T12:21:43.351Z,3.40
2017-12-19T12:24:11.471Z,2.80
2017-12-19T12:26:40.103Z,3.10
2017-12-19T12:29:08.211Z,3.30
2017-12-19T12:31:36.600Z,3.10
2017-12-19T12:34:04.747Z,3.30
2017-12-19T12:36:32.807Z,2.80
2017-12-19T12:39:00.917Z,2.20
2017-12-19T12:41:29.072Z,2.20
2017-12-19T12:43:57.143Z,2.40
2017-12-19T12:46:25.256Z,2.60
2017-12-19T12:48:53.381Z,2.20
2017-12-19T12:51:21.491Z,2.20
2017-12-19T12:53:49.760Z,2.50
2017-12-19T12:56:17.871Z,2.20
2017-12-19T12:58:46.087Z,2.20
2017-12-19T13:01:14.197Z,2.50
2017-12-19T13:03:42.303Z,2.80
2017-12-19T13:06:10.379Z,2.80
2017-12-19T13:08:38.459Z,2.40
2017-12-19T13:11:06.559Z,2.30
2017-12-19T13:13:35.438Z,2.00
2017-12-19T13:16:04.366Z,2.30
2017-12-19T13:18:32.409Z,2.30
2017-12-19T13:21:01.269Z,2.50
2017-12-19T13:23:29.359Z,2.50
2017-12-19T13:25:58.211Z,1.90
2017-12-19T13:28:26.310Z,1.90
2017-12-19T13:30:55.181Z,1.60
2017-12-19T13:33:23.312Z,1.50
2017-12-19T13:35:51.395Z,1.50
2017-12-19T13:38:19.505Z,1.70
2017-12-19T13:40:47.592Z,1.60
2017-12-19T13:43:16.443Z,2.00
2017-12-19T13:45:44.575Z,1.90
2017-12-19T13:48:12.666Z,2.10
2017-12-19T13:50:40.764Z,1.90
2017-12-19T13:53:08.847Z,1.80
2017-12-19T13:55:37.747Z,1.90
2017-12-19T13:58:06.593Z,1.60
2017-12-19T14:00:35.677Z,1.70
2017-12-19T14:03:03.748Z,1.70
2017-12-19T14:05:31.833Z,1.80
2017-12-19T14:07:59.927Z,2.00
2017-12-19T14:10:28.799Z,1.80
2017-12-19T14:12:56.996Z,1.80
2017-12-19T14:15:25.140Z,1.70
2017-12-19T14:17:53.236Z,1.60
2017-12-19T14:20:21.341Z,1.40
2017-12-19T14:22:49.431Z,1.50
2017-12-19T14:25:17.541Z,1.30
2017-12-19T14:27:45.631Z,1.20
2017-12-19T14:30:13.739Z,1.10
2017-12-19T14:32:41.842Z,1.10
2017-12-19T14:35:09.944Z,1.10
2017-12-19T14:37:38.052Z,1.10
2017-12-19T14:40:06.176Z,1.10
2017-12-19T14:42:35.028Z,1.00
2017-12-19T14:45:03.137Z,1.00
2017-12-19T14:47:31.250Z,0.90
2017-12-19T14:49:59.368Z,0.90
2017-12-19T14:52:28.216Z,1.00
2017-12-19T14:54:56.326Z,1.00
2017-12-19T14:57:25.256Z,0.90
2017-12-19T14:59:53.339Z,0.80
2017-12-19T15:02:21.428Z,0.90
2017-12-19T15:04:49.548Z,0.90
2017-12-19T15:07:17.648Z,0.90
2017-12-19T15:09:45.759Z,0.90
2017-12-19T15:12:14.610Z,0.90
2017-12-19T15:14:42.729Z,0.90
2017-12-19T15:17:11.592Z,0.90
2017-12-19T15:19:39.710Z,0.90
2017-12-19T15:22:07.803Z,1.00
2017-12-19T15:24:35.888Z,1.00
2017-12-19T15:27:04.017Z,1.10
2017-12-19T15:29:32.117Z,1.00
2017-12-19T15:32:00.226Z,1.00
2017-12-19T15:34:28.317Z,1.00
2017-12-19T15:36:56.428Z,0.90
2017-12-19T15:39:24.586Z,0.90
2017-12-19T15:41:52.671Z,0.90
2017-12-19T15:44:20.752Z,0.90
2017-12-19T15:46:48.854Z,0.90
2017-12-19T15:49:17.706Z,0.90
2017-12-19T15:51:45.843Z,0.90
2017-12-19T15:54:13.919Z,0.90
2017-12-19T15:56:42.024Z,0.90
2017-12-19T15:59:10.213Z,0.90
2017-12-19T16:01:38.759Z,0.80
2017-12-19T16:04:06.834Z,0.90
2017-12-19T16:06:34.950Z,0.90
2017-12-19T16:09:03.031Z,0.90
2017-12-19T16:11:31.252Z,1.00
2017-12-19T16:13:59.393Z,1.00
2017-12-19T16:16:28.207Z,1.00
2017-12-19T16:18:56.304Z,1.00
2017-12-19T16:21:24.402Z,1.00
2017-12-19T16:23:52.547Z,0.90
2017-12-19T16:26:20.702Z,1.00
2017-12-19T16:28:49.132Z,0.90
2017-12-19T16:31:17.346Z,0.90
2017-12-19T16:33:45.437Z,0.90
2017-12-19T16:36:13.526Z,0.80
2017-12-19T16:38:41.624Z,0.80
2017-12-19T16:41:10.070Z,0.80
2017-12-19T16:43:38.952Z,0.70
2017-12-19T16:46:07.042Z,0.70
2017-12-19T16:48:35.115Z,0.80
2017-12-19T16:51:04.228Z,0.70
2017-12-19T16:53:32.339Z,0.70
2017-12-19T16:56:00.432Z,0.80
2017-12-19T16:58:28.738Z,0.80
2017-12-19T17:00:57.679Z,0.70
2017-12-19T17:03:25.772Z,0.70
2017-12-19T17:05:54.640Z,0.70
2017-12-19T17:08:22.785Z,0.70
2017-12-19T17:10:50.909Z,0.70
2017-12-19T17:13:20.550Z,0.70
2017-12-19T17:15:48.631Z,0.70
2017-12-19T17:18:16.729Z,0.70
2017-12-19T17:20:44.871Z,0.70
2017-12-19T17:23:13.786Z,0.70
2017-12-19T17:25:41.864Z,0.70
2017-12-19T17:28:10.883Z,0.70
2017-12-19T17:30:39.042Z,0.70
2017-12-19T17:33:07.353Z,0.60
2017-12-19T17:35:36.306Z,0.60
2017-12-19T17:38:05.503Z,0.60
2017-12-19T17:40:34.507Z,0.60
2017-12-19T17:43:02.631Z,0.60
2017-12-19T17:45:30.728Z,0.60
2017-12-19T17:47:59.579Z,0.60
2017-12-19T17:50:27.667Z,0.50
2017-12-19T17:52:55.817Z,0.60
2017-12-19T17:55:24.108Z,0.50
2017-12-19T17:57:52.222Z,0.50
2017-12-19T18:00:20.289Z,0.60
2017-12-19T18:02:48.399Z,0.50
2017-12-19T18:05:16.499Z,0.50
2017-12-19T18:07:44.587Z,0.40
2017-12-19T18:10:12.713Z,0.50
2017-12-19T18:12:40.825Z,0.50
2017-12-19T18:15:08.911Z,0.50
2017-12-19T18:17:36.999Z,0.50
2017-12-19T18:20:05.093Z,0.50
2017-12-19T18:22:33.226Z,0.50
2017-12-19T18:25:01.381Z,0.50
2017-12-19T18:27:30.263Z,0.50
2017-12-19T18:29:58.408Z,0.50
2017-12-19T18:32:26.526Z,0.50
2017-12-19T18:34:54.752Z,0.50
2017-12-19T18:37:23.678Z,0.50
2017-12-19T18:39:52.519Z,0.50
2017-12-19T18:42:20.616Z,0.50
2017-12-19T18:44:48.697Z,0.50
2017-12-19T18:47:17.600Z,0.50
2017-12-19T18:49:46.435Z,0.50
2017-12-19T18:52:14.511Z,0.50
2017-12-19T18:54:42.726Z,0.40
2017-12-19T18:57:11.567Z,0.40
2017-12-19T18:59:39.723Z,0.40
2017-12-19T19:02:07.852Z,0.40
2017-12-19T19:04:36.751Z,0.40
2017-12-19T19:07:05.648Z,0.50
2017-12-19T19:09:33.719Z,0.50
2017-12-19T19:12:01.808Z,0.40
2017-12-19T19:17:25.623Z,0.40
2017-12-19T19:19:53.810Z,0.40
2017-12-19T19:22:23.406Z,0.30
2017-12-19T19:24:52.457Z,0.30
2017-12-19T19:27:21.218Z,0.30
2017-12-19T19:29:50.265Z,0.40
2017-12-19T19:32:22.300Z,0.40
2017-12-19T19:34:50.410Z,0.40
2017-12-19T19:37:18.529Z,0.40
2017-12-19T19:39:46.646Z,0.30
2017-12-19T19:42:14.754Z,0.40
2017-12-19T19:44:42.892Z,0.40
2017-12-19T19:47:11.031Z,0.40
2017-12-19T19:49:39.206Z,0.40
2017-12-19T19:52:07.404Z,0.40
2017-12-19T19:54:36.021Z,0.40
2017-12-19T19:57:04.196Z,0.40
2017-12-19T19:59:32.309Z,0.40
2017-12-19T20:02:00.435Z,0.40
2017-12-19T20:04:29.428Z,0.50
2017-12-19T20:06:57.585Z,0.50
2017-12-19T20:09:25.715Z,0.40
2017-12-19T20:11:53.835Z,0.40
2017-12-19T20:14:23.385Z,0.40
2017-12-19T20:16:51.641Z,0.40
2017-12-19T20:19:19.717Z,0.40
2017-12-19T20:21:47.807Z,0.40
2017-12-19T20:24:15.938Z,0.40
2017-12-19T20:26:44.314Z,0.40
2017-12-19T20:29:12.427Z,0.40
2017-12-19T20:31:40.516Z,0.40
2017-12-19T20:34:08.687Z,0.40
2017-12-19T20:36:37.601Z,0.40
2017-12-19T20:39:06.481Z,0.40
2017-12-19T20:41:35.361Z,0.50
2017-12-19T20:44:03.476Z,0.40
2017-12-19T20:46:31.591Z,0.40
2017-12-19T20:48:59.768Z,0.40
2017-12-19T20:51:27.962Z,0.40
2017-12-19T20:53:56.855Z,0.50
2017-12-19T20:56:24.980Z,0.50
2017-12-19T20:58:53.941Z,0.50
2017-12-19T21:01:22.062Z,0.50
2017-12-19T21:03:51.611Z,0.50
2017-12-19T21:06:19.845Z,0.50
2017-12-19T21:08:47.970Z,0.50
2017-12-19T21:11:16.090Z,0.50
2017-12-19T21:13:44.218Z,0.50
2017-12-19T21:16:12.464Z,0.50
2017-12-19T21:18:40.729Z,0.50
2017-12-19T21:21:08.895Z,0.60
2017-12-19T21:23:37.017Z,0.50
2017-12-19T21:26:05.162Z,0.50
2017-12-19T21:28:33.288Z,0.60
2017-12-19T21:31:01.651Z,0.50
2017-12-19T21:33:29.764Z,0.50
2017-12-19T21:35:57.934Z,0.50
2017-12-19T21:38:26.815Z,0.50
2017-12-19T21:40:54.983Z,0.50
2017-12-19T21:43:23.831Z,0.60
2017-12-19T21:45:52.000Z,0.50
2017-12-19T21:48:20.137Z,0.60
2017-12-19T21:50:48.257Z,0.60
2017-12-19T21:53:16.375Z,0.60
2017-12-19T21:55:44.452Z,0.60
2017-12-19T21:58:12.586Z,0.60
2017-12-19T22:00:40.729Z,0.60
2017-12-19T22:03:08.803Z,0.60
2017-12-19T22:05:36.954Z,0.60
2017-12-19T22:08:05.083Z,0.60
2017-12-19T22:10:34.037Z,0.70
2017-12-19T22:13:02.862Z,0.70
2017-12-19T22:15:31.752Z,0.70
2017-12-19T22:18:00.643Z,0.70
2017-12-19T22:20:29.591Z,0.70
2017-12-19T22:22:57.754Z,0.70
2017-12-19T22:25:25.874Z,0.70
2017-12-19T22:27:54.777Z,0.70
2017-12-19T22:30:23.646Z,0.70
2017-12-19T22:32:52.536Z,0.70
2017-12-19T22:35:21.422Z,0.70
2017-12-19T22:37:50.369Z,0.70
2017-12-19T22:40:18.483Z,0.70
2017-12-19T22:42:47.376Z,0.70
2017-12-19T22:45:16.208Z,0.70
2017-12-19T22:47:44.519Z,0.70
2017-12-19T22:50:13.480Z,0.80
2017-12-19T22:52:41.574Z,0.80
2017-12-19T22:55:09.705Z,0.80
2017-12-19T22:57:37.831Z,0.70
2017-12-19T23:00:06.706Z,0.80
2017-12-19T23:02:34.818Z,0.70
2017-12-19T23:05:02.947Z,0.80
2017-12-19T23:07:31.015Z,0.70
2017-12-19T23:09:59.917Z,0.70
2017-12-19T23:12:28.069Z,0.70
2017-12-19T23:14:56.186Z,0.80
2017-12-19T23:17:24.926Z,0.80
2017-12-19T23:19:53.669Z,0.80
2017-12-19T23:22:21.796Z,0.80
2017-12-19T23:24:49.950Z,0.80
2017-12-19T23:27:18.051Z,0.90
2017-12-19T23:29:46.884Z,0.90
2017-12-19T23:32:14.999Z,0.80
2017-12-19T23:34:43.910Z,0.80
2017-12-19T23:37:12.743Z,0.90
2017-12-19T23:39:40.878Z,0.80
2017-12-19T23:42:08.951Z,0.80
2017-12-19T23:44:37.032Z,0.80
2017-12-19T23:47:05.138Z,0.80
2017-12-19T23:49:33.413Z,0.80
2017-12-19T23:52:01.508Z,0.80
2017-12-19T23:54:29.590Z,0.80
2017-12-19T23:56:57.734Z,0.90
2017-12-19T23:59:26.700Z,0.90
